Pagina principale
METAR-TAF:

METAR-TAF

Aeroporti :

Aeroporto di Venezia-Tessera

Venezia, Italia

latitudine: 45-30N, longitudine: 012-20E, altezza: 2 m

Osservazione

Il bollettino è stato emesso 21 minuti fa, alle 04:50 UTC
Vento 10 kt da nord-est
Temperature 11°C
Umidità 71%
Pressione 1012 hPa
Visibilità 10 km o più
nessuna nube inferiore a 1500 m e nessun cumulonembo

METAR: LIPZ 300450Z 05010KT CAVOK 11/06 Q1012 NOSIG

Ora: 07:11 (05:11 UTC)

Previsione

Il bollettino è stato emesso 6 ore e 11 minuti fa, alle 23:00 UTC
Previsione valida dal 30 alle 00 UTC al 31 alle 06 UTC
Vento 5 kt da direzioni variabili
Visibilità 10 km o più
Poco nuvoloso ad un'altezza di 4000 ft
Evoluzione graduale
dal 30 alle 02 UTC al 30 alle 04 UTC
Vento 15 kt da est/nord-est
Evoluzione graduale
dal 30 alle 10 UTC al 30 alle 12 UTC
Vento 18 kt da est/nord-est con raffiche fino a 28 kt

TAF: LIPZ 292300Z 3000/3106 VRB05KT 9999 FEW040 BECMG 3002/3004 07015KT BECMG 3010/3012 07018G28KT

Osservazioni e previsioni meteorologiche di più di 4000 aeroporti (messaggi METAR e TAF).

Le stazioni disponibili sono rappresentate dai dischi gialli e rossi sulla carta.

Puntare il mouse per vedere il nome della stazione.

Clicca sopra per visualizzare le osservazioni e previsioni meteorologiche.

Per cambiare la mappa : fare clic sui pulsanti verdi con una croce nera per ingrandire, il pulsante verde con un trattino per diminuire, o sulla freccia verde per le mappe adiacenti.


METAR-TAF: